Time;durP1;ratioP1;P1;durP2;ratioP2;P2;SDS_P1;SDS_P2;PMS_P1;PMS_P2;Temp;Humidity;BMP_temperature;BMP_pressure;BME280_temperature;BME280_humidity;BME280_pressure;Samples;Min_cycle;Max_cycle;Signal;HPM_P1;HPM_P2
2023/12/24 00:01:05;;;;;;;1.20;1.10;;;8.40;99.90;;;;;;4939379;29;20055;-91
2023/12/24 00:03:33;;;;;;;2.28;1.75;;;8.50;99.90;;;;;;4946772;29;20107;-94
2023/12/24 00:05:58;;;;;;;2.05;1.52;;;8.40;99.90;;;;;;4921140;29;20028;-91
2023/12/24 00:08:24;;;;;;;1.42;1.33;;;8.40;99.90;;;;;;4938670;29;20068;-91
2023/12/24 00:10:50;;;;;;;0.80;0.70;;;8.40;99.90;;;;;;4938762;29;20125;-90
2023/12/24 00:13:15;;;;;;;1.27;1.17;;;8.40;99.90;;;;;;4932706;29;20031;-92
2023/12/24 00:15:41;;;;;;;2.85;1.17;;;8.40;99.90;;;;;;4946233;29;20035;-91
2023/12/24 00:18:07;;;;;;;4.40;1.63;;;8.40;99.90;;;;;;4943108;29;20087;-91
2023/12/24 00:20:32;;;;;;;1.10;1.00;;;8.30;99.90;;;;;;4938239;29;20028;-92
2023/12/24 00:23:08;;;;;;;1.35;1.25;;;8.30;99.90;;;;;;4942095;29;20027;-91
2023/12/24 00:25:35;;;;;;;1.60;1.50;;;8.40;99.90;;;;;;4943052;29;20024;-91
2023/12/24 00:28:01;;;;;;;2.40;1.13;;;8.40;99.90;;;;;;4928326;29;20028;-92
2023/12/24 00:30:27;;;;;;;1.33;1.15;;;8.40;99.90;;;;;;4945111;29;20139;-90
2023/12/24 00:32:53;;;;;;;1.02;0.80;;;8.40;99.90;;;;;;4927644;29;20036;-92
2023/12/24 00:35:23;;;;;;;0.98;0.77;;;8.40;99.90;;;;;;4944435;29;20039;-90
2023/12/24 00:37:49;;;;;;;1.67;0.85;;;8.40;99.90;;;;;;4945515;29;20028;-91
2023/12/24 00:40:17;;;;;;;1.27;1.17;;;8.40;99.90;;;;;;4944621;29;20066;-90
2023/12/24 00:42:42;;;;;;;1.27;1.17;;;8.50;99.90;;;;;;4936394;29;20023;-91
2023/12/24 00:45:11;;;;;;;1.20;1.10;;;8.50;99.90;;;;;;4925774;29;20047;-90
2023/12/24 00:47:38;;;;;;;0.75;0.73;;;8.50;99.90;;;;;;4937594;28;20008;-94
2023/12/24 00:50:07;;;;;;;1.60;1.50;;;8.50;99.90;;;;;;4944075;29;20028;-93
2023/12/24 00:52:34;;;;;;;1.83;1.20;;;8.40;99.90;;;;;;4952906;28;20039;-90
2023/12/24 00:55:00;;;;;;;1.88;1.08;;;8.50;99.90;;;;;;4935433;29;20021;-96
2023/12/24 00:57:25;;;;;;;1.42;1.08;;;8.50;99.90;;;;;;4948966;28;20106;-90
2023/12/24 00:59:51;;;;;;;1.63;1.05;;;8.50;99.90;;;;;;4939366;29;20502;-93
2023/12/24 01:02:17;;;;;;;1.95;1.23;;;8.50;99.90;;;;;;4937752;29;20062;-90
2023/12/24 01:04:43;;;;;;;1.30;1.20;;;8.50;99.90;;;;;;4937281;29;20032;-90
2023/12/24 01:07:08;;;;;;;1.27;1.05;;;8.50;99.90;;;;;;4939951;29;20115;-92
2023/12/24 01:09:36;;;;;;;1.00;0.88;;;8.40;99.90;;;;;;4933996;29;20452;-91
2023/12/24 01:12:02;;;;;;;1.88;1.77;;;8.50;99.90;;;;;;4918995;29;20028;-90
2023/12/24 01:14:28;;;;;;;1.33;1.23;;;8.50;99.90;;;;;;4943650;29;20028;-92
2023/12/24 01:16:53;;;;;;;1.20;0.52;;;8.50;99.90;;;;;;4925077;29;20051;-91
2023/12/24 01:19:19;;;;;;;1.48;0.90;;;8.50;99.90;;;;;;4935957;29;20028;-91
2023/12/24 01:21:44;;;;;;;1.45;1.17;;;8.50;99.90;;;;;;4943026;29;20020;-91
2023/12/24 01:24:10;;;;;;;1.40;1.30;;;8.50;99.90;;;;;;4942105;29;20024;-91
2023/12/24 01:26:36;;;;;;;1.05;0.90;;;8.60;99.70;;;;;;4928084;29;20083;-90
2023/12/24 01:29:03;;;;;;;1.58;1.10;;;8.60;99.40;;;;;;4931250;29;20367;-91
2023/12/24 01:31:28;;;;;;;1.77;0.90;;;8.60;99.80;;;;;;4924910;29;20080;-91
2023/12/24 01:33:54;;;;;;;5.28;1.20;;;8.60;99.40;;;;;;4925653;29;20036;-92
2023/12/24 01:36:20;;;;;;;1.13;0.75;;;8.60;99.70;;;;;;4924824;29;20032;-90
2023/12/24 01:38:46;;;;;;;1.52;1.13;;;8.60;99.20;;;;;;4935512;29;20032;-90
2023/12/24 01:41:12;;;;;;;1.13;1.13;;;8.60;99.30;;;;;;4942906;29;20038;-91
2023/12/24 01:43:41;;;;;;;1.88;1.38;;;8.60;99.50;;;;;;4936488;29;20483;-91
2023/12/24 01:46:08;;;;;;;1.45;1.02;;;8.60;99.10;;;;;;4941987;29;20047;-92
2023/12/24 01:48:34;;;;;;;0.80;0.73;;;8.60;99.20;;;;;;4925796;29;20020;-89
2023/12/24 01:51:00;;;;;;;1.50;1.25;;;8.60;98.90;;;;;;4940271;29;20483;-91
2023/12/24 01:53:26;;;;;;;2.15;1.33;;;8.60;98.40;;;;;;4919831;29;20138;-91
2023/12/24 01:55:53;;;;;;;0.80;0.70;;;8.60;98.10;;;;;;4922027;29;20036;-91
2023/12/24 01:58:19;;;;;;;3.63;3.42;;;8.60;97.80;;;;;;4921911;29;20491;-91
2023/12/24 02:00:47;;;;;;;1.17;1.08;;;8.70;98.10;;;;;;4935210;29;20570;-91
2023/12/24 02:03:13;;;;;;;1.40;1.30;;;8.70;97.10;;;;;;4925590;29;20031;-91
2023/12/24 02:05:40;;;;;;;1.00;1.00;;;8.70;97.60;;;;;;4929225;29;20530;-90
2023/12/24 02:08:07;;;;;;;1.30;1.23;;;8.70;97.40;;;;;;4942665;29;20028;-91
2023/12/24 02:10:33;;;;;;;1.05;0.90;;;8.70;96.90;;;;;;4947968;29;20034;-92
2023/12/24 02:12:59;;;;;;;0.98;0.80;;;8.70;96.80;;;;;;4945289;29;20035;-91
2023/12/24 02:15:25;;;;;;;1.15;0.75;;;8.70;97.70;;;;;;4929413;29;20055;-92
2023/12/24 02:17:52;;;;;;;1.75;1.65;;;8.70;97.90;;;;;;4946584;29;20031;-91
2023/12/24 02:20:24;;;;;;;1.65;1.55;;;8.70;98.20;;;;;;4944470;29;20027;-91
2023/12/24 02:22:49;;;;;;;1.67;1.58;;;8.60;98.90;;;;;;4944562;29;20020;-92
2023/12/24 02:25:15;;;;;;;0.95;0.88;;;8.60;99.10;;;;;;4941246;29;20122;-91
2023/12/24 02:27:47;;;;;;;1.13;0.85;;;8.70;99.50;;;;;;4944046;29;20030;-91
2023/12/24 02:30:20;;;;;;;1.35;1.05;;;8.60;98.90;;;;;;4929336;29;20020;-91
2023/12/24 02:32:53;;;;;;;0.88;0.75;;;8.70;98.40;;;;;;4930940;29;20051;-91
2023/12/24 02:35:20;;;;;;;2.42;1.25;;;8.70;98.10;;;;;;4928909;29;20032;-90
2023/12/24 02:37:46;;;;;;;1.20;1.10;;;8.80;98.30;;;;;;4937152;29;20051;-91
2023/12/24 02:40:12;;;;;;;2.28;0.75;;;8.80;97.40;;;;;;4925211;29;20032;-91
2023/12/24 02:42:37;;;;;;;1.33;1.02;;;8.90;96.50;;;;;;4937834;29;20031;-91
2023/12/24 02:45:03;;;;;;;2.30;1.17;;;9.00;96.40;;;;;;4942384;29;20059;-91
2023/12/24 02:47:29;;;;;;;2.10;0.82;;;9.00;96.40;;;;;;4926805;29;20032;-90
2023/12/24 02:49:55;;;;;;;2.30;1.98;;;9.00;96.20;;;;;;4944521;29;20049;-93
2023/12/24 02:52:20;;;;;;;2.05;1.95;;;9.10;95.80;;;;;;4944543;29;20394;-92
2023/12/24 02:54:46;;;;;;;2.00;1.48;;;9.00;95.70;;;;;;4944041;29;20031;-91
2023/12/24 02:57:12;;;;;;;1.23;1.00;;;9.10;95.70;;;;;;4942601;29;20047;-90
2023/12/24 02:59:37;;;;;;;1.05;0.77;;;9.00;96.20;;;;;;4943893;29;20075;-92
2023/12/24 03:02:03;;;;;;;1.60;1.50;;;8.90;96.50;;;;;;4947925;29;20099;-91
2023/12/24 03:04:29;;;;;;;1.15;0.82;;;8.90;96.60;;;;;;4929755;29;20478;-92
2023/12/24 03:06:54;;;;;;;2.05;1.02;;;8.90;97.10;;;;;;4927797;29;20038;-92
2023/12/24 03:09:20;;;;;;;1.70;0.98;;;8.80;96.90;;;;;;4922776;29;20036;-91
2023/12/24 03:11:47;;;;;;;1.23;1.02;;;8.90;97.20;;;;;;4940155;29;20103;-93
2023/12/24 03:14:12;;;;;;;1.73;1.63;;;8.90;97.00;;;;;;4935133;29;20019;-91
2023/12/24 03:16:38;;;;;;;2.83;2.63;;;8.80;96.30;;;;;;4943842;29;20383;-92
2023/12/24 03:19:04;;;;;;;1.52;1.02;;;8.90;94.60;;;;;;4943177;29;20027;-92
2023/12/24 03:21:29;;;;;;;4.63;4.43;;;9.10;93.40;;;;;;4938821;29;20431;-92
2023/12/24 03:23:55;;;;;;;1.00;0.90;;;9.20;91.50;;;;;;4932533;29;20087;-91
2023/12/24 03:26:22;;;;;;;1.13;1.02;;;9.30;90.20;;;;;;4929102;29;20028;-90
2023/12/24 03:28:49;;;;;;;1.63;1.52;;;9.30;90.40;;;;;;4943513;29;20038;-91
2023/12/24 03:31:15;;;;;;;0.85;0.85;;;9.40;89.80;;;;;;4931907;29;20131;-91
2023/12/24 03:33:40;;;;;;;1.60;1.50;;;9.40;89.60;;;;;;4943692;29;20464;-90
2023/12/24 03:36:08;;;;;;;2.08;1.75;;;9.40;89.50;;;;;;4922731;29;20052;-93
2023/12/24 03:38:33;;;;;;;1.45;1.35;;;9.50;88.60;;;;;;4925214;29;20024;-89
2023/12/24 03:40:59;;;;;;;1.50;1.40;;;9.50;88.60;;;;;;4925761;29;20622;-91
2023/12/24 03:43:24;;;;;;;0.90;0.90;;;9.50;88.60;;;;;;4943838;29;20030;-92
2023/12/24 03:45:50;;;;;;;1.35;1.25;;;9.50;88.30;;;;;;4943574;29;20487;-90
2023/12/24 03:48:16;;;;;;;1.52;1.25;;;9.50;88.50;;;;;;4932683;29;20032;-91
2023/12/24 03:50:43;;;;;;;1.08;0.98;;;9.50;88.50;;;;;;4931717;29;20036;-92
2023/12/24 03:53:08;;;;;;;2.80;2.70;;;9.50;89.10;;;;;;4936499;29;20419;-92
2023/12/24 03:55:37;;;;;;;1.23;0.88;;;9.50;88.30;;;;;;4941877;29;20149;-90
2023/12/24 03:58:03;;;;;;;1.73;1.25;;;9.50;87.50;;;;;;4920012;29;20040;-91
2023/12/24 04:00:29;;;;;;;1.27;1.17;;;9.50;87.90;;;;;;4933780;29;20043;-90
2023/12/24 04:02:55;;;;;;;1.27;1.17;;;9.50;87.40;;;;;;4928632;29;20049;-91
2023/12/24 04:05:23;;;;;;;1.08;1.08;;;9.60;87.30;;;;;;4926170;29;20028;-92
2023/12/24 04:07:49;;;;;;;2.85;2.60;;;9.60;87.80;;;;;;4935225;29;20473;-91
2023/12/24 04:10:15;;;;;;;1.08;1.00;;;9.60;87.40;;;;;;4930018;29;20058;-89
2023/12/24 04:12:44;;;;;;;1.55;1.30;;;9.60;87.30;;;;;;4939941;29;20017;-91
2023/12/24 04:15:10;;;;;;;1.08;1.00;;;9.50;89.50;;;;;;4926350;29;20099;-92
2023/12/24 04:17:36;;;;;;;1.65;1.55;;;9.40;90.00;;;;;;4929827;29;20087;-91
2023/12/24 04:20:04;;;;;;;1.50;1.40;;;9.30;91.10;;;;;;4931218;29;20076;-91
2023/12/24 04:22:30;;;;;;;2.33;1.08;;;9.20;91.80;;;;;;4925320;29;20044;-91
2023/12/24 04:24:57;;;;;;;1.42;1.20;;;9.20;91.90;;;;;;4936800;29;20056;-92
2023/12/24 04:27:22;;;;;;;1.42;1.27;;;9.10;93.10;;;;;;4932684;29;20099;-91
2023/12/24 04:29:48;;;;;;;1.65;1.00;;;9.10;93.40;;;;;;4931132;29;20028;-93
2023/12/24 04:32:14;;;;;;;2.33;1.10;;;9.20;93.10;;;;;;4939552;29;20040;-93
2023/12/24 04:34:40;;;;;;;1.00;0.90;;;9.20;92.50;;;;;;4935167;29;20024;-92
2023/12/24 04:37:13;;;;;;;1.42;1.33;;;9.30;92.70;;;;;;4932808;29;20034;-92
2023/12/24 04:39:38;;;;;;;1.95;1.20;;;9.30;93.10;;;;;;4919232;29;20036;-90
2023/12/24 04:42:04;;;;;;;1.15;1.05;;;9.30;93.40;;;;;;4944432;29;20028;-92
2023/12/24 04:44:30;;;;;;;1.25;1.00;;;9.30;93.30;;;;;;4946895;29;20435;-92
2023/12/24 04:46:55;;;;;;;0.90;0.75;;;9.30;93.40;;;;;;4928719;29;20031;-92
2023/12/24 04:49:21;;;;;;;0.95;0.95;;;9.30;93.10;;;;;;4938196;29;20047;-91
2023/12/24 04:51:47;;;;;;;1.25;1.02;;;9.20;93.60;;;;;;4929324;29;20478;-91
2023/12/24 04:54:13;;;;;;;1.38;1.00;;;9.10;94.00;;;;;;4933399;29;20028;-92
2023/12/24 04:56:38;;;;;;;1.02;0.70;;;9.00;94.90;;;;;;4935954;29;20052;-91
2023/12/24 04:59:04;;;;;;;1.90;0.80;;;8.90;95.20;;;;;;4937636;29;20028;-91
2023/12/24 05:01:30;;;;;;;2.95;2.85;;;8.90;95.80;;;;;;4939656;29;20368;-93
2023/12/24 05:03:56;;;;;;;1.38;0.93;;;8.90;96.20;;;;;;4941971;29;20132;-91
2023/12/24 05:06:22;;;;;;;0.95;0.80;;;8.90;96.20;;;;;;4937741;29;20051;-92
2023/12/24 05:08:47;;;;;;;1.45;1.35;;;8.90;96.20;;;;;;4937171;29;20032;-92
2023/12/24 05:11:13;;;;;;;2.15;1.30;;;8.90;96.50;;;;;;4937024;29;20062;-92
2023/12/24 05:13:39;;;;;;;2.10;0.90;;;8.90;97.00;;;;;;4942634;29;20043;-91
2023/12/24 05:16:05;;;;;;;1.55;1.00;;;8.80;97.50;;;;;;4929526;29;20039;-92
2023/12/24 05:18:35;;;;;;;2.10;1.58;;;8.80;97.00;;;;;;4939525;29;20056;-93
2023/12/24 05:21:00;;;;;;;1.88;0.75;;;8.80;97.60;;;;;;4924394;29;20087;-91
2023/12/24 05:23:26;;;;;;;1.25;0.77;;;8.70;97.90;;;;;;4928030;29;20031;-92
2023/12/24 05:25:52;;;;;;;1.85;1.23;;;8.70;97.90;;;;;;4924737;29;20046;-91
2023/12/24 05:28:18;;;;;;;2.20;1.27;;;8.70;98.10;;;;;;4933736;29;20028;-93
2023/12/24 05:30:44;;;;;;;1.75;1.20;;;8.70;98.30;;;;;;4941139;29;20031;-92
2023/12/24 05:33:10;;;;;;;1.40;1.30;;;8.70;98.10;;;;;;4927765;29;20038;-91
2023/12/24 05:35:36;;;;;;;1.38;1.27;;;8.70;97.90;;;;;;4945708;29;20031;-94
2023/12/24 05:38:02;;;;;;;1.30;1.17;;;8.80;97.60;;;;;;4945128;29;20031;-92
2023/12/24 05:40:28;;;;;;;1.17;1.15;;;8.70;97.00;;;;;;4928406;29;20024;-90
2023/12/24 05:42:54;;;;;;;1.25;0.70;;;8.80;96.80;;;;;;4931600;29;20552;-92
2023/12/24 05:45:20;;;;;;;1.63;1.52;;;8.80;96.30;;;;;;4948524;29;20047;-92
2023/12/24 05:47:45;;;;;;;2.08;1.10;;;8.80;96.20;;;;;;4946519;29;20079;-91
2023/12/24 05:50:14;;;;;;;2.60;2.40;;;8.80;96.40;;;;;;4946170;29;20459;-93
2023/12/24 05:52:41;;;;;;;1.02;0.80;;;8.80;96.70;;;;;;4946147;29;20482;-91
2023/12/24 05:55:09;;;;;;;1.85;1.75;;;8.80;96.80;;;;;;4943141;29;20402;-92
2023/12/24 05:57:35;;;;;;;1.52;1.42;;;8.90;97.00;;;;;;4926025;29;20039;-92
2023/12/24 06:00:00;;;;;;;2.00;1.90;;;8.90;96.70;;;;;;4926678;29;20445;-91
2023/12/24 06:02:26;;;;;;;1.13;1.02;;;8.90;97.20;;;;;;4939851;29;20024;-92
2023/12/24 06:04:52;;;;;;;1.02;1.02;;;8.90;97.30;;;;;;4938218;29;20068;-91
2023/12/24 06:07:18;;;;;;;3.95;0.68;;;8.90;97.40;;;;;;4937114;29;20463;-92
2023/12/24 06:09:43;;;;;;;6.97;2.13;;;8.90;97.50;;;;;;4942105;29;20031;-92
2023/12/24 06:12:09;;;;;;;1.35;0.75;;;9.00;97.30;;;;;;4940142;29;20024;-92
2023/12/24 06:14:35;;;;;;;1.08;0.73;;;9.00;97.50;;;;;;4951432;29;20179;-94
2023/12/24 06:17:00;;;;;;;1.33;1.23;;;8.90;97.30;;;;;;4940114;28;20016;-92
2023/12/24 06:19:26;;;;;;;1.05;0.93;;;9.00;97.10;;;;;;4940254;29;20027;-93
2023/12/24 06:21:55;;;;;;;1.92;0.90;;;9.00;97.00;;;;;;4948803;29;20036;-91
2023/12/24 06:24:24;;;;;;;2.45;2.25;;;9.00;97.20;;;;;;4935199;29;20403;-91
2023/12/24 06:26:51;;;;;;;1.42;0.63;;;9.00;97.00;;;;;;4923123;29;20090;-93
2023/12/24 06:29:22;;;;;;;1.70;1.02;;;9.00;97.50;;;;;;4927006;29;20032;-91
2023/12/24 06:31:47;;;;;;;0.85;0.85;;;9.00;97.60;;;;;;4939955;29;20028;-92
2023/12/24 06:34:14;;;;;;;2.10;2.00;;;9.00;97.60;;;;;;4936714;29;20416;-91
2023/12/24 06:36:39;;;;;;;0.88;0.77;;;9.00;97.90;;;;;;4944071;29;20112;-92
2023/12/24 06:39:05;;;;;;;2.13;0.60;;;9.00;98.50;;;;;;4947036;29;20028;-91
2023/12/24 06:41:31;;;;;;;1.25;1.02;;;9.00;98.40;;;;;;4941659;29;20032;-91
2023/12/24 06:43:57;;;;;;;1.85;1.15;;;9.00;97.90;;;;;;4942832;29;20497;-92
2023/12/24 06:46:24;;;;;;;1.95;0.95;;;9.00;98.30;;;;;;4938711;29;20094;-93
2023/12/24 06:48:51;;;;;;;0.90;0.73;;;9.00;98.40;;;;;;4939110;29;20055;-95
2023/12/24 06:51:17;;;;;;;1.13;1.00;;;9.00;98.90;;;;;;4926991;29;20072;-93
2023/12/24 06:53:43;;;;;;;1.58;1.48;;;9.10;99.40;;;;;;4924454;29;20032;-90
2023/12/24 06:56:09;;;;;;;0.90;0.90;;;9.00;99.90;;;;;;4925133;29;20024;-92
2023/12/24 06:58:35;;;;;;;1.33;1.00;;;9.00;99.90;;;;;;4944844;29;20545;-93
2023/12/24 07:01:00;;;;;;;1.20;0.95;;;8.90;99.90;;;;;;4941429;29;20025;-93
2023/12/24 07:03:26;;;;;;;1.42;1.33;;;8.90;99.90;;;;;;4936718;29;20100;-91
2023/12/24 07:05:53;;;;;;;0.98;0.90;;;8.90;99.90;;;;;;4950112;29;20023;-92
2023/12/24 07:08:20;;;;;;;1.73;1.25;;;8.90;99.90;;;;;;4947792;29;20092;-92
2023/12/24 07:10:46;;;;;;;1.20;0.80;;;8.90;99.90;;;;;;4928048;29;20032;-91
2023/12/24 07:13:12;;;;;;;1.30;1.02;;;8.90;99.90;;;;;;4939297;29;20040;-90
2023/12/24 07:15:39;;;;;;;1.48;0.68;;;9.00;99.90;;;;;;4939220;29;20036;-91
2023/12/24 07:18:05;;;;;;;1.45;0.95;;;8.90;99.90;;;;;;4926320;29;20024;-91
2023/12/24 07:20:31;;;;;;;1.23;1.13;;;9.00;99.90;;;;;;4949918;29;20079;-92
2023/12/24 07:23:00;;;;;;;0.85;0.85;;;9.00;99.40;;;;;;4952803;29;20056;-92
2023/12/24 07:25:25;;;;;;;0.82;0.82;;;9.00;98.90;;;;;;4932460;29;20307;-92
2023/12/24 07:27:51;;;;;;;0.60;0.60;;;9.10;99.00;;;;;;4928843;29;20024;-93
2023/12/24 07:30:17;;;;;;;1.38;1.38;;;9.00;99.40;;;;;;4920102;29;20024;-91
2023/12/24 07:32:44;;;;;;;1.15;1.15;;;9.00;99.20;;;;;;4953507;29;20011;-93
2023/12/24 07:35:10;;;;;;;1.13;1.13;;;9.10;99.30;;;;;;4936217;29;20569;-92
2023/12/24 07:37:35;;;;;;;1.13;1.00;;;9.10;99.20;;;;;;4931183;29;20092;-91
2023/12/24 07:40:01;;;;;;;0.88;0.65;;;9.10;99.30;;;;;;4915191;29;20035;-91
2023/12/24 07:42:27;;;;;;;0.98;0.98;;;9.10;99.90;;;;;;4937331;29;20043;-91
2023/12/24 07:44:52;;;;;;;1.20;1.20;;;9.10;99.90;;;;;;4948334;29;20091;-92
2023/12/24 07:47:18;;;;;;;1.45;1.33;;;9.10;99.90;;;;;;4937749;29;20020;-91
2023/12/24 07:49:44;;;;;;;1.25;1.23;;;9.10;99.90;;;;;;4956822;29;20444;-93
2023/12/24 07:52:10;;;;;;;1.05;1.00;;;9.10;99.90;;;;;;4940579;29;20042;-93
2023/12/24 07:54:35;;;;;;;1.10;1.00;;;9.10;99.90;;;;;;4934068;29;20034;-93
2023/12/24 07:57:01;;;;;;;0.80;0.80;;;9.00;99.90;;;;;;4945666;29;20032;-91
2023/12/24 07:59:28;;;;;;;1.25;1.25;;;9.00;99.90;;;;;;4928218;29;20028;-91
2023/12/24 08:01:53;;;;;;;1.00;0.82;;;9.00;99.90;;;;;;4941110;29;20075;-92
2023/12/24 08:04:19;;;;;;;1.48;1.08;;;8.90;99.90;;;;;;4931225;29;20051;-91
2023/12/24 08:06:45;;;;;;;1.05;1.05;;;8.90;99.90;;;;;;4933538;29;20028;-91
2023/12/24 08:09:11;;;;;;;1.10;0.95;;;8.90;99.90;;;;;;4938833;29;20134;-91
2023/12/24 08:11:37;;;;;;;1.00;1.00;;;8.90;99.90;;;;;;4941388;29;20035;-92
2023/12/24 08:14:04;;;;;;;0.70;0.70;;;8.90;99.90;;;;;;4939811;29;20035;-92
2023/12/24 08:16:35;;;;;;;1.08;1.00;;;8.70;99.90;;;;;;4934338;29;20028;-91
2023/12/24 08:19:01;;;;;;;1.10;1.00;;;8.70;99.90;;;;;;4926556;29;20024;-91
2023/12/24 08:21:26;;;;;;;0.95;0.93;;;8.60;99.90;;;;;;4930216;29;20137;-91
2023/12/24 08:23:52;;;;;;;0.88;0.88;;;8.60;99.90;;;;;;4938222;29;20032;-90
2023/12/24 08:26:18;;;;;;;1.13;1.13;;;8.70;99.90;;;;;;4925435;29;20024;-92
2023/12/24 08:28:44;;;;;;;1.70;1.00;;;8.70;99.90;;;;;;4931070;29;20070;-91
2023/12/24 08:31:10;;;;;;;1.23;1.23;;;8.70;99.90;;;;;;4946574;29;20055;-92
2023/12/24 08:33:36;;;;;;;1.02;1.00;;;8.80;99.90;;;;;;4935271;29;20031;-91
2023/12/24 08:36:06;;;;;;;1.08;1.08;;;8.90;99.90;;;;;;4934717;29;20032;-91
2023/12/24 08:38:32;;;;;;;1.20;0.98;;;8.90;99.90;;;;;;4931498;29;20031;-91
2023/12/24 08:40:58;;;;;;;1.05;1.02;;;9.00;99.90;;;;;;4938198;29;20028;-92
2023/12/24 08:43:24;;;;;;;1.45;0.93;;;9.00;99.90;;;;;;4938063;29;20038;-91
2023/12/24 08:45:50;;;;;;;1.02;1.02;;;9.00;99.90;;;;;;4929395;29;20080;-93
2023/12/24 08:48:16;;;;;;;2.78;0.70;;;9.00;99.90;;;;;;4927445;29;20031;-91
2023/12/24 08:50:42;;;;;;;0.70;0.50;;;9.00;99.90;;;;;;4920922;29;20027;-91
2023/12/24 08:53:07;;;;;;;2.20;2.10;;;8.90;99.90;;;;;;4944303;29;20405;-91
2023/12/24 08:55:33;;;;;;;0.50;0.50;;;8.90;99.90;;;;;;4937938;29;20035;-91
2023/12/24 08:57:59;;;;;;;1.85;1.23;;;8.80;99.90;;;;;;4930328;29;20087;-91
2023/12/24 09:00:25;;;;;;;1.02;1.02;;;8.80;99.90;;;;;;4940570;29;20026;-92
2023/12/24 09:02:51;;;;;;;0.60;0.60;;;8.80;99.90;;;;;;4940497;29;20609;-93
2023/12/24 09:05:18;;;;;;;0.35;0.35;;;8.80;99.90;;;;;;4935420;29;20056;-89
2023/12/24 09:07:44;;;;;;;1.13;0.50;;;8.80;99.90;;;;;;4946117;29;20050;-91
2023/12/24 09:10:12;;;;;;;1.30;0.80;;;8.80;99.90;;;;;;4945738;29;20047;-95
2023/12/24 09:12:38;;;;;;;0.82;0.82;;;8.70;99.90;;;;;;4930875;29;20032;-92
2023/12/24 09:15:04;;;;;;;2.28;2.17;;;8.60;99.90;;;;;;4924928;29;20400;-91
2023/12/24 09:17:30;;;;;;;1.05;1.05;;;8.60;99.90;;;;;;4937772;29;20052;-92
2023/12/24 09:19:56;;;;;;;1.90;1.80;;;8.60;99.90;;;;;;4923766;29;20468;-92
2023/12/24 09:22:21;;;;;;;0.70;0.70;;;8.60;99.90;;;;;;4922485;29;20119;-90
2023/12/24 09:24:47;;;;;;;1.58;0.90;;;8.60;99.90;;;;;;4922782;29;20036;-91
2023/12/24 09:27:13;;;;;;;1.23;1.00;;;8.60;99.90;;;;;;4929190;29;20055;-92
2023/12/24 09:29:39;;;;;;;2.58;0.88;;;8.60;99.90;;;;;;4928940;29;20482;-92
2023/12/24 09:32:05;;;;;;;1.20;0.90;;;8.50;99.90;;;;;;4926663;29;20047;-91
2023/12/24 09:34:31;;;;;;;0.95;0.85;;;8.60;99.90;;;;;;4944214;29;20118;-92
2023/12/24 09:36:56;;;;;;;1.00;0.90;;;8.60;99.90;;;;;;4946369;29;20024;-93
2023/12/24 09:39:22;;;;;;;1.25;0.55;;;8.60;99.90;;;;;;4933257;29;20028;-93
2023/12/24 09:41:49;;;;;;;0.82;0.82;;;8.60;99.90;;;;;;4938350;29;20032;-93
2023/12/24 09:44:14;;;;;;;0.90;0.63;;;8.60;99.90;;;;;;4930692;29;20499;-92
2023/12/24 09:46:40;;;;;;;1.38;1.00;;;8.60;99.90;;;;;;4931188;29;20046;-91
2023/12/24 09:49:06;;;;;;;1.35;1.25;;;8.60;99.90;;;;;;4923291;29;20024;-91
2023/12/24 09:51:35;;;;;;;1.23;1.08;;;8.60;99.90;;;;;;4929598;29;20024;-93
2023/12/24 09:54:01;;;;;;;1.50;1.40;;;8.70;99.90;;;;;;4925476;29;20089;-91
2023/12/24 09:56:27;;;;;;;1.10;1.00;;;8.70;99.90;;;;;;4933737;29;20083;-92
2023/12/24 09:58:53;;;;;;;1.45;1.20;;;8.70;99.90;;;;;;4941425;29;20036;-92
2023/12/24 10:01:19;;;;;;;1.52;1.15;;;8.70;99.90;;;;;;4936362;29;20082;-91
2023/12/24 10:03:44;;;;;;;0.77;0.70;;;8.70;99.90;;;;;;4926504;29;20057;-89
2023/12/24 10:06:10;;;;;;;2.83;0.75;;;8.70;99.90;;;;;;4924115;29;20043;-90
2023/12/24 10:08:37;;;;;;;1.98;0.88;;;8.60;99.90;;;;;;4929568;29;20592;-92
2023/12/24 10:11:21;;;;;;;2.17;1.23;;;8.60;99.90;;;;;;4933411;29;20028;-93
2023/12/24 10:13:56;;;;;;;2.13;1.00;;;8.60;99.90;;;;;;4922700;29;20166;-91
2023/12/24 10:16:25;;;;;;;1.75;1.65;;;8.50;99.90;;;;;;4936335;29;20542;-91
2023/12/24 10:18:51;;;;;;;1.10;1.02;;;8.60;99.90;;;;;;4923191;29;20447;-92
2023/12/24 10:21:18;;;;;;;1.58;1.20;;;8.50;99.90;;;;;;4929477;29;20024;-91
2023/12/24 10:23:44;;;;;;;1.95;1.00;;;8.50;99.90;;;;;;4921923;29;20032;-92
2023/12/24 10:26:11;;;;;;;0.95;0.93;;;8.40;99.90;;;;;;4921879;29;20103;-92
2023/12/24 10:28:51;;;;;;;2.35;2.25;;;8.40;99.90;;;;;;4921139;29;20649;-92
2023/12/24 10:31:16;;;;;;;1.25;1.15;;;8.40;99.90;;;;;;4934591;29;20031;-92
2023/12/24 10:33:42;;;;;;;1.00;0.52;;;8.30;99.90;;;;;;4933702;29;20059;-91
2023/12/24 10:36:08;;;;;;;0.85;0.73;;;8.40;99.90;;;;;;4940830;29;20034;-92
2023/12/24 10:38:35;;;;;;;0.90;0.82;;;8.30;99.90;;;;;;4934683;29;20024;-92
2023/12/24 10:41:02;;;;;;;1.23;1.13;;;8.40;99.90;;;;;;4914321;29;20059;-90
2023/12/24 10:43:27;;;;;;;2.25;1.45;;;8.40;99.90;;;;;;4927686;29;20119;-92
2023/12/24 10:45:53;;;;;;;1.98;1.17;;;8.30;99.90;;;;;;4912206;29;20091;-91
2023/12/24 10:48:19;;;;;;;1.58;1.00;;;8.40;99.90;;;;;;4924777;29;20034;-92
2023/12/24 10:50:46;;;;;;;1.23;1.13;;;8.40;99.90;;;;;;4924179;29;20545;-91
2023/12/24 10:53:13;;;;;;;1.13;1.02;;;8.30;99.90;;;;;;4930110;29;20039;-92
2023/12/24 10:55:41;;;;;;;0.90;0.70;;;8.30;99.90;;;;;;4925155;29;20040;-92
2023/12/24 10:58:22;;;;;;;0.93;0.80;;;8.40;99.90;;;;;;4928466;29;20024;-92
2023/12/24 11:00:48;;;;;;;1.45;1.25;;;8.30;99.90;;;;;;4919583;29;20024;-93
2023/12/24 11:03:49;;;;;;;1.20;1.10;;;8.40;99.90;;;;;;4942172;29;20096;-92
2023/12/24 11:06:36;;;;;;;2.20;1.13;;;8.40;99.90;;;;;;4912013;29;20043;-91
2023/12/24 11:09:30;;;;;;;2.03;0.98;;;8.50;99.90;;;;;;4936970;29;20027;-90
2023/12/24 11:11:58;;;;;;;1.45;1.25;;;8.50;99.90;;;;;;4943046;29;20024;-92
2023/12/24 11:14:45;;;;;;;1.00;0.88;;;8.50;99.90;;;;;;4942697;29;20043;-92
2023/12/24 11:17:36;;;;;;;2.50;1.48;;;8.40;99.90;;;;;;4935087;29;20023;-94
2023/12/24 11:20:17;;;;;;;1.17;1.10;;;8.50;99.90;;;;;;4932373;29;20036;-92
2023/12/24 11:23:04;;;;;;;1.60;1.48;;;8.40;99.90;;;;;;4936610;29;20031;-93
2023/12/24 11:25:43;;;;;;;2.65;1.42;;;8.40;99.90;;;;;;4937271;29;20027;-91
2023/12/24 11:28:28;;;;;;;1.83;1.05;;;8.40;99.90;;;;;;4926259;29;20066;-94
2023/12/24 11:30:57;;;;;;;1.42;0.57;;;8.40;99.90;;;;;;4921753;29;20051;-89
2023/12/24 11:33:29;;;;;;;1.52;1.40;;;8.40;99.90;;;;;;4931135;29;20024;-93
2023/12/24 11:35:56;;;;;;;1.33;1.23;;;8.40;99.90;;;;;;4937303;29;20040;-91
2023/12/24 11:38:34;;;;;;;2.88;2.28;;;8.40;99.90;;;;;;4936105;29;20410;-92
2023/12/24 11:41:19;;;;;;;2.35;2.25;;;8.40;99.90;;;;;;4933218;29;20392;-92
2023/12/24 11:43:58;;;;;;;2.08;1.13;;;8.40;99.90;;;;;;4926969;29;20034;-92
2023/12/24 11:46:26;;;;;;;2.25;2.05;;;8.40;99.90;;;;;;4926651;29;20483;-90
2023/12/24 11:49:00;;;;;;;1.35;1.20;;;8.40;99.90;;;;;;4938357;29;20024;-95
2023/12/24 11:51:26;;;;;;;1.40;1.33;;;8.40;99.90;;;;;;4934044;29;20255;-92
2023/12/24 11:54:06;;;;;;;1.83;1.73;;;8.40;99.90;;;;;;4941773;29;20550;-93
2023/12/24 11:56:32;;;;;;;1.63;1.38;;;8.40;99.90;;;;;;4923799;29;20483;-93
2023/12/24 11:59:00;;;;;;;1.52;1.42;;;8.40;99.90;;;;;;4928243;29;20024;-91
2023/12/24 12:01:32;;;;;;;2.10;0.98;;;8.40;99.90;;;;;;4919085;29;20107;-91
2023/12/24 12:04:05;;;;;;;2.15;1.08;;;8.40;99.90;;;;;;4922310;29;20047;-92
2023/12/24 12:06:38;;;;;;;1.25;1.15;;;8.40;99.90;;;;;;4935281;29;20162;-93
2023/12/24 12:09:06;;;;;;;0.88;0.80;;;8.40;99.90;;;;;;4941257;29;20035;-92
2023/12/24 12:11:32;;;;;;;2.92;2.72;;;8.40;99.90;;;;;;4922869;29;20367;-92
2023/12/24 12:14:04;;;;;;;1.25;0.80;;;8.40;99.90;;;;;;4938852;29;20035;-90
2023/12/24 12:16:30;;;;;;;2.60;2.30;;;8.40;99.90;;;;;;4926121;29;20444;-91
2023/12/24 12:18:55;;;;;;;1.48;1.38;;;8.50;99.90;;;;;;4931081;29;20035;-90
2023/12/24 12:21:21;;;;;;;1.60;1.42;;;8.40;99.90;;;;;;4928614;29;20043;-90
2023/12/24 12:23:46;;;;;;;1.42;1.30;;;8.50;99.90;;;;;;4923226;29;20039;-89
2023/12/24 12:26:12;;;;;;;1.55;1.38;;;8.50;99.90;;;;;;4922897;29;20047;-93
2023/12/24 12:28:38;;;;;;;1.58;1.33;;;8.50;99.90;;;;;;4928039;29;20031;-93
2023/12/24 12:31:04;;;;;;;2.17;1.40;;;8.60;99.90;;;;;;4932624;29;20115;-92
2023/12/24 12:33:30;;;;;;;1.40;1.30;;;8.60;99.90;;;;;;4941011;29;20074;-92
2023/12/24 12:35:55;;;;;;;1.27;1.17;;;8.50;99.90;;;;;;4934722;29;20147;-93
2023/12/24 12:38:24;;;;;;;2.15;1.40;;;8.50;99.90;;;;;;4936248;29;20024;-93
2023/12/24 12:40:53;;;;;;;1.20;1.10;;;8.50;99.90;;;;;;4924662;29;20046;-91
2023/12/24 12:43:20;;;;;;;2.42;2.33;;;8.60;99.90;;;;;;4939782;29;20168;-92
2023/12/24 12:45:46;;;;;;;2.20;1.33;;;8.60;99.90;;;;;;4931807;29;20020;-91
2023/12/24 12:48:11;;;;;;;3.10;2.65;;;8.60;99.90;;;;;;4918739;29;20585;-91
2023/12/24 12:50:37;;;;;;;1.73;1.60;;;8.50;99.90;;;;;;4919990;29;20020;-91
2023/12/24 12:53:04;;;;;;;2.08;1.45;;;8.50;99.90;;;;;;4939271;29;20070;-91
2023/12/24 12:55:30;;;;;;;2.25;1.95;;;8.50;99.90;;;;;;4940228;29;20031;-90
2023/12/24 12:57:56;;;;;;;2.00;1.45;;;8.50;99.90;;;;;;4930089;29;20103;-94